Time;durP1;ratioP1;P1;durP2;ratioP2;P2;SDS_P1;SDS_P2;PMS_P1;PMS_P2;Temp;Humidity;BMP_temperature;BMP_pressure;BME280_temperature;BME280_humidity;BME280_pressure;Samples;Min_cycle;Max_cycle;Signal;HPM_P1;HPM_P2
2022/10/19 00:00:50;;;;;;;10.80;10.20;;;;;;;9.12;100.00;101035.69;5079649;28;20024;-64
2022/10/19 00:03:16;;;;;;;10.02;9.52;;;;;;;9.17;100.00;101031.75;5081737;28;20113;-64
2022/10/19 00:05:42;;;;;;;10.50;10.00;;;;;;;9.02;100.00;101021.69;5080925;28;20482;-65
2022/10/19 00:08:08;;;;;;;9.93;9.43;;;;;;;9.03;100.00;101027.81;5080344;28;20020;-64
2022/10/19 00:10:34;;;;;;;10.65;10.10;;;;;;;9.04;100.00;101026.84;5082090;28;20363;-64
2022/10/19 00:12:59;;;;;;;10.38;9.88;;;;;;;8.98;100.00;101022.16;5083373;28;20024;-65
2022/10/19 00:15:25;;;;;;;9.70;9.23;;;;;;;8.99;100.00;101014.06;5087748;28;20112;-64
2022/10/19 00:17:50;;;;;;;11.10;10.50;;;;;;;8.96;100.00;101024.97;5081602;28;20027;-64
2022/10/19 00:20:16;;;;;;;9.75;9.25;;;;;;;8.95;100.00;101022.44;5079364;28;20015;-65
2022/10/19 00:22:41;;;;;;;10.30;9.80;;;;;;;8.91;100.00;101021.09;5081178;28;20437;-65
2022/10/19 00:25:07;;;;;;;10.43;9.93;;;;;;;8.85;100.00;101011.97;5081386;28;20054;-65
2022/10/19 00:27:33;;;;;;;10.40;9.90;;;;;;;8.77;100.00;101011.88;5081378;28;20386;-65
2022/10/19 00:29:58;;;;;;;9.90;9.40;;;;;;;8.67;100.00;101014.63;5083146;28;20170;-65
2022/10/19 00:32:24;;;;;;;9.90;9.40;;;;;;;8.74;100.00;101013.03;5089953;28;20024;-64
2022/10/19 00:34:50;;;;;;;10.07;9.57;;;;;;;8.73;100.00;101007.88;5082186;28;20032;-64
2022/10/19 00:37:16;;;;;;;10.18;9.68;;;;;;;8.65;100.00;101003.34;5084508;28;20106;-64
2022/10/19 00:39:41;;;;;;;10.40;9.90;;;;;;;8.53;100.00;101002.72;5084539;28;20145;-64
2022/10/19 00:42:11;;;;;;;9.93;9.43;;;;;;;8.47;100.00;101005.97;5078113;28;20100;-64
2022/10/19 00:44:36;;;;;;;10.40;9.90;;;;;;;8.42;100.00;101008.22;5080637;28;20012;-64
2022/10/19 00:47:05;;;;;;;10.30;9.80;;;;;;;8.44;100.00;101008.06;5085354;28;20039;-64
2022/10/19 00:49:34;;;;;;;10.65;10.13;;;;;;;8.45;100.00;101005.31;5088170;28;20032;-64
2022/10/19 00:52:22;;;;;;;10.07;9.57;;;;;;;8.39;100.00;100995.31;5084188;28;20024;-64
2022/10/19 00:54:49;;;;;;;11.00;10.40;;;;;;;8.21;100.00;100997.03;5082772;28;20050;-64
2022/10/19 00:57:15;;;;;;;10.32;9.82;;;;;;;8.07;100.00;100997.53;5079842;28;20025;-64
2022/10/19 00:59:43;;;;;;;10.20;9.70;;;;;;;8.00;100.00;100992.00;5085884;28;20031;-65
2022/10/19 01:02:08;;;;;;;10.13;9.63;;;;;;;8.00;100.00;100995.47;5083131;28;20111;-64
2022/10/19 01:04:38;;;;;;;10.55;10.00;;;;;;;8.04;100.00;100993.38;5080621;28;20448;-64
2022/10/19 01:07:04;;;;;;;10.50;9.95;;;;;;;8.03;100.00;100991.72;5088975;28;20064;-64
2022/10/19 01:09:29;;;;;;;10.45;9.95;;;;;;;7.96;100.00;100985.38;5083825;28;20123;-65
2022/10/19 01:12:22;;;;;;;10.93;10.32;;;;;;;8.09;100.00;100982.38;5088263;28;20021;-64
2022/10/19 01:15:06;;;;;;;10.82;10.23;;;;;;;7.95;100.00;100981.06;5085747;28;20475;-64
2022/10/19 01:18:05;;;;;;;9.90;9.40;;;;;;;7.83;100.00;100983.06;5088774;28;20035;-64
2022/10/19 01:20:58;;;;;;;10.00;9.50;;;;;;;7.90;100.00;100980.66;5086704;28;20035;-64
2022/10/19 01:23:35;;;;;;;10.65;10.05;;;;;;;7.82;100.00;100976.09;5092518;28;20491;-64
2022/10/19 01:26:00;;;;;;;9.77;9.27;;;;;;;7.81;100.00;100971.81;5087873;28;20089;-64
2022/10/19 01:28:44;;;;;;;10.05;9.55;;;;;;;7.93;100.00;100973.28;5083213;28;20479;-63
2022/10/19 01:31:56;;;;;;;10.00;9.50;;;;;;;8.00;100.00;100965.59;5090230;28;20020;-63
2022/10/19 01:34:43;;;;;;;9.82;9.32;;;;;;;8.00;100.00;100974.34;5064245;28;20292;-64
2022/10/19 01:37:34;;;;;;;9.90;9.40;;;;;;;8.07;100.00;100964.00;5085234;28;20039;-64
2022/10/19 01:40:21;;;;;;;9.85;9.35;;;;;;;8.04;100.00;100962.50;5089001;28;20032;-65
2022/10/19 01:43:04;;;;;;;9.77;9.27;;;;;;;7.98;100.00;100959.63;5088609;28;20024;-64
2022/10/19 01:45:41;;;;;;;9.85;9.35;;;;;;;8.02;100.00;100955.72;5083931;28;20040;-64
2022/10/19 01:48:14;;;;;;;9.75;9.25;;;;;;;7.99;100.00;100956.81;5087971;28;20024;-64
2022/10/19 01:51:04;;;;;;;10.13;9.63;;;;;;;7.83;100.00;100951.34;5079676;28;20028;-65
2022/10/19 01:53:37;;;;;;;9.98;9.48;;;;;;;7.88;100.00;100961.50;5083107;28;20024;-64
2022/10/19 01:56:05;;;;;;;10.05;9.55;;;;;;;7.88;100.00;100951.75;5085181;28;20494;-64
2022/10/19 01:58:36;;;;;;;10.35;9.85;;;;;;;7.85;100.00;100952.03;5081880;28;20391;-64
2022/10/19 02:01:06;;;;;;;10.25;9.75;;;;;;;7.78;100.00;100950.94;5085210;28;20169;-64
2022/10/19 02:03:34;;;;;;;10.50;9.90;;;;;;;7.57;100.00;100947.75;5085707;28;20391;-64
2022/10/19 02:06:03;;;;;;;9.95;9.45;;;;;;;7.54;100.00;100951.47;5080751;28;20100;-64
2022/10/19 02:08:33;;;;;;;10.25;9.75;;;;;;;7.69;100.00;100957.94;5090106;28;20046;-64
2022/10/19 02:11:00;;;;;;;9.98;9.48;;;;;;;7.68;100.00;100953.66;5081797;28;20107;-64
2022/10/19 02:13:28;;;;;;;10.13;9.63;;;;;;;7.68;100.00;100948.38;5092455;28;20204;-63
2022/10/19 02:15:57;;;;;;;10.13;9.63;;;;;;;7.62;100.00;100956.88;5089140;28;20027;-62
2022/10/19 02:18:35;;;;;;;9.70;9.20;;;;;;;7.61;100.00;100951.72;5081338;28;20074;-65
2022/10/19 02:21:05;;;;;;;10.10;9.60;;;;;;;7.67;100.00;100951.16;5093302;28;20388;-64
2022/10/19 02:23:31;;;;;;;10.48;9.93;;;;;;;7.64;100.00;100954.94;5084256;28;20020;-64
2022/10/19 02:25:57;;;;;;;10.27;9.77;;;;;;;7.66;100.00;100947.69;5087228;28;20031;-65
2022/10/19 02:28:24;;;;;;;21.15;19.55;;;;;;;7.53;100.00;100928.69;5086804;28;20096;-65
2022/10/19 02:30:50;;;;;;;10.20;9.70;;;;;;;7.53;100.00;100949.00;5080383;28;20078;-63
2022/10/19 02:33:15;;;;;;;10.15;9.65;;;;;;;7.55;100.00;100947.84;5083175;28;20360;-63
2022/10/19 02:35:41;;;;;;;10.05;9.55;;;;;;;7.59;100.00;100953.69;5085744;28;20082;-64
2022/10/19 02:38:10;;;;;;;9.70;9.20;;;;;;;7.57;100.00;100955.66;5092578;28;20107;-64
2022/10/19 02:40:42;;;;;;;9.88;9.38;;;;;;;7.53;100.00;100951.63;5083261;28;20517;-64
2022/10/19 02:43:13;;;;;;;9.70;9.20;;;;;;;7.47;100.00;100955.66;5088955;28;20057;-65
2022/10/19 02:45:50;;;;;;;9.73;9.23;;;;;;;7.52;100.00;100963.16;5084472;28;20110;-64
2022/10/19 02:48:22;;;;;;;9.93;9.43;;;;;;;7.38;100.00;100954.72;5084511;28;20040;-65
2022/10/19 02:50:48;;;;;;;10.00;9.50;;;;;;;7.44;100.00;100956.81;5087405;28;20052;-64
2022/10/19 02:53:14;;;;;;;9.93;9.43;;;;;;;7.44;100.00;100962.09;5088154;28;20544;-64
2022/10/19 02:55:41;;;;;;;10.02;9.52;;;;;;;7.39;100.00;100956.38;5087866;28;20031;-65
2022/10/19 02:58:07;;;;;;;10.63;10.02;;;;;;;7.38;100.00;100956.53;5083011;28;20716;-64
2022/10/19 03:00:33;;;;;;;10.32;9.80;;;;;;;7.27;100.00;100944.34;5087192;28;20084;-64
2022/10/19 03:02:59;;;;;;;10.23;9.73;;;;;;;7.31;100.00;100952.81;5083168;28;20043;-64
2022/10/19 03:05:24;;;;;;;10.80;10.20;;;;;;;7.25;100.00;100959.47;5090748;28;20020;-63
2022/10/19 03:07:49;;;;;;;9.90;9.40;;;;;;;7.08;100.00;100947.03;5090400;28;21008;-63
2022/10/19 03:10:15;;;;;;;10.30;9.80;;;;;;;7.13;100.00;100966.75;5085013;28;20036;-64
2022/10/19 03:12:40;;;;;;;10.68;10.07;;;;;;;7.17;100.00;100959.38;5082132;28;20025;-64
2022/10/19 03:15:07;;;;;;;10.07;9.57;;;;;;;7.10;100.00;100963.53;5084414;28;20113;-64
2022/10/19 03:17:32;;;;;;;10.05;9.55;;;;;;;7.10;100.00;100961.72;5085364;28;20036;-64
2022/10/19 03:19:57;;;;;;;10.95;10.35;;;;;;;7.12;100.00;100956.31;5082181;28;20094;-65
2022/10/19 03:22:23;;;;;;;10.88;10.27;;;;;;;7.12;100.00;100953.66;5086093;28;20131;-64
2022/10/19 03:24:49;;;;;;;9.75;9.25;;;;;;;7.08;100.00;100955.78;5084763;28;20028;-64
2022/10/19 03:27:14;;;;;;;9.55;9.05;;;;;;;7.10;100.00;100959.09;5084240;28;20020;-64
2022/10/19 03:29:40;;;;;;;10.00;9.50;;;;;;;7.11;100.00;100959.94;5082676;28;20032;-64
2022/10/19 03:32:05;;;;;;;10.02;9.52;;;;;;;7.12;100.00;100953.66;5077378;28;20021;-64
2022/10/19 03:34:31;;;;;;;11.50;10.80;;;;;;;7.03;100.00;100962.44;5086142;28;20039;-65
2022/10/19 03:36:58;;;;;;;9.68;9.18;;;;;;;7.02;100.00;100955.50;5085678;28;20055;-64
2022/10/19 03:39:24;;;;;;;10.65;10.05;;;;;;;6.86;100.00;100948.16;5085730;28;20020;-65
2022/10/19 03:41:49;;;;;;;10.10;9.60;;;;;;;7.04;100.00;100957.00;5086850;28;20020;-65
2022/10/19 03:44:15;;;;;;;10.10;9.60;;;;;;;6.97;100.00;100958.56;5080629;28;20516;-64
2022/10/19 03:46:40;;;;;;;10.07;9.57;;;;;;;7.01;100.00;100959.13;5079355;28;20044;-64
2022/10/19 03:49:07;;;;;;;10.63;10.02;;;;;;;6.96;100.00;100954.25;5075530;28;20028;-63
2022/10/19 03:51:34;;;;;;;10.40;9.80;;;;;;;6.93;100.00;100962.47;5082916;28;20073;-64
2022/10/19 03:54:03;;;;;;;10.15;9.65;;;;;;;6.88;100.00;100954.13;5087126;28;20035;-64
2022/10/19 03:56:30;;;;;;;10.65;10.05;;;;;;;6.84;100.00;100950.94;5081799;28;20038;-64
2022/10/19 03:58:57;;;;;;;10.32;9.77;;;;;;;6.87;100.00;100945.38;5077324;28;20052;-65
2022/10/19 04:01:25;;;;;;;10.00;9.50;;;;;;;6.88;100.00;100946.22;5080571;28;20046;-64
2022/10/19 04:04:04;;;;;;;9.63;9.13;;;;;;;6.85;100.00;100949.16;5083495;28;20424;-65
2022/10/19 04:06:33;;;;;;;10.43;9.88;;;;;;;6.76;100.00;100945.53;5083637;28;20027;-65
2022/10/19 04:08:59;;;;;;;10.02;9.52;;;;;;;6.80;100.00;100946.09;5086235;28;20028;-65
2022/10/19 04:11:27;;;;;;;10.68;10.07;;;;;;;6.74;100.00;100947.47;5083772;28;20038;-65
2022/10/19 04:13:54;;;;;;;9.93;9.43;;;;;;;6.81;100.00;100948.56;5077819;28;20020;-63
2022/10/19 04:16:21;;;;;;;10.18;9.65;;;;;;;6.83;100.00;100938.75;5083522;28;20028;-63
2022/10/19 04:18:46;;;;;;;10.43;9.82;;;;;;;6.86;100.00;100945.53;5084008;28;20026;-62
2022/10/19 04:21:19;;;;;;;11.18;10.57;;;;;;;6.80;100.00;100939.00;5080710;28;20028;-64
2022/10/19 04:23:45;;;;;;;10.70;10.10;;;;;;;6.83;100.00;100943.16;5078436;28;20029;-63
2022/10/19 04:26:10;;;;;;;9.65;9.15;;;;;;;6.83;100.00;100941.38;5075791;28;20117;-64
2022/10/19 04:28:36;;;;;;;11.52;10.82;;;;;;;6.79;100.00;100947.91;5074391;28;20035;-61
2022/10/19 04:31:05;;;;;;;10.40;9.80;;;;;;;6.89;100.00;100946.06;5079034;28;20031;-61
2022/10/19 04:33:31;;;;;;;11.27;10.65;;;;;;;6.89;100.00;100938.16;5082686;28;20112;-62
2022/10/19 04:35:58;;;;;;;11.48;10.77;;;;;;;6.90;100.00;100937.22;5082541;28;20114;-62
2022/10/19 04:38:23;;;;;;;11.30;10.65;;;;;;;7.04;100.00;100943.00;5080766;28;20031;-63
2022/10/19 04:40:49;;;;;;;10.90;10.30;;;;;;;7.16;100.00;100931.31;5080717;28;20065;-63
2022/10/19 04:43:14;;;;;;;10.93;10.32;;;;;;;7.19;100.00;100931.03;5081806;28;20023;-63
2022/10/19 04:45:40;;;;;;;10.88;10.27;;;;;;;7.30;100.00;100935.31;5077006;28;20049;-64
2022/10/19 04:48:05;;;;;;;11.23;10.63;;;;;;;7.62;100.00;100940.19;5079592;28;20037;-64
2022/10/19 04:50:31;;;;;;;11.23;10.60;;;;;;;7.93;100.00;100935.44;5077009;28;20089;-63
2022/10/19 04:52:57;;;;;;;10.95;10.35;;;;;;;8.27;100.00;100933.84;5078002;28;20044;-63
2022/10/19 04:55:22;;;;;;;10.30;9.80;;;;;;;8.57;100.00;100937.16;5078535;28;20032;-64
2022/10/19 04:57:48;;;;;;;10.93;10.32;;;;;;;8.76;100.00;100937.00;5078963;28;20095;-64
2022/10/19 05:00:14;;;;;;;10.63;10.02;;;;;;;9.08;100.00;100931.09;5078022;28;20110;-65
2022/10/19 05:02:45;;;;;;;11.02;10.43;;;;;;;9.46;100.00;100941.44;5080280;28;20055;-64
2022/10/19 05:05:14;;;;;;;10.50;9.98;;;;;;;9.69;100.00;100943.38;5083727;28;20024;-65
2022/10/19 05:07:40;;;;;;;10.45;9.95;;;;;;;9.96;100.00;100944.97;5081971;28;20325;-65
2022/10/19 05:10:07;;;;;;;10.65;10.10;;;;;;;10.23;100.00;100943.09;5080088;28;20036;-64
2022/10/19 05:12:34;;;;;;;10.50;10.00;;;;;;;10.74;100.00;100939.34;5082825;28;20063;-61
2022/10/19 05:15:00;;;;;;;10.10;9.60;;;;;;;11.27;100.00;100942.47;5073548;28;20115;-63
2022/10/19 05:17:29;;;;;;;10.60;10.10;;;;;;;12.28;100.00;100944.44;5081287;28;20103;-63
2022/10/19 05:19:54;;;;;;;10.40;9.90;;;;;;;13.52;100.00;100946.75;5081125;28;20130;-63
2022/10/19 05:22:19;;;;;;;10.52;10.02;;;;;;;14.27;100.00;100951.78;5077436;28;20104;-62
2022/10/19 05:24:45;;;;;;;10.75;10.25;;;;;;;14.98;100.00;100953.72;5081925;28;20045;-61
2022/10/19 05:27:10;;;;;;;10.38;9.88;;;;;;;15.78;100.00;100958.59;5081459;28;20028;-62
2022/10/19 05:29:36;;;;;;;10.60;10.10;;;;;;;16.79;98.30;100956.88;5080086;28;20039;-62
2022/10/19 05:32:01;;;;;;;10.27;9.77;;;;;;;17.30;94.16;100955.44;5079650;28;20499;-65
2022/10/19 05:34:27;;;;;;;10.23;9.73;;;;;;;17.23;91.95;100958.09;5078386;28;20020;-62
2022/10/19 05:36:54;;;;;;;10.25;9.75;;;;;;;18.08;87.38;100964.31;5078854;28;20034;-61
2022/10/19 05:39:19;;;;;;;10.68;10.18;;;;;;;18.93;81.19;100947.91;5081201;28;20028;-61
2022/10/19 05:41:46;;;;;;;10.38;9.88;;;;;;;19.03;76.79;100965.19;5077841;28;20024;-62
2022/10/19 05:44:18;;;;;;;9.85;9.45;;;;;;;19.68;71.64;100956.72;5081071;28;20112;-62
2022/10/19 05:46:45;;;;;;;10.32;9.82;;;;;;;19.50;72.17;100957.50;5078865;28;20506;-62
2022/10/19 05:49:12;;;;;;;10.57;10.07;;;;;;;19.33;69.10;100951.91;5080967;28;20494;-61
2022/10/19 05:51:38;;;;;;;11.07;10.57;;;;;;;20.33;65.60;100951.56;5075746;28;20055;-62
2022/10/19 05:54:03;;;;;;;11.10;10.60;;;;;;;20.39;63.84;100952.53;5088405;28;20035;-61
2022/10/19 05:56:30;;;;;;;10.35;9.85;;;;;;;21.07;62.60;100954.78;5081664;28;20023;-61
2022/10/19 05:58:57;;;;;;;10.15;9.75;;;;;;;20.86;60.72;100948.13;5080453;28;20039;-62
2022/10/19 06:01:22;;;;;;;10.40;9.90;;;;;;;21.66;58.73;100952.91;5082339;28;20082;-61
2022/10/19 06:03:53;;;;;;;10.63;10.13;;;;;;;22.21;54.65;100957.03;5089117;28;20094;-61
2022/10/19 06:06:19;;;;;;;10.25;9.85;;;;;;;22.73;53.27;100959.59;5087695;28;20157;-61
2022/10/19 06:08:45;;;;;;;10.93;10.43;;;;;;;22.70;50.95;100952.81;5081282;28;20512;-61
2022/10/19 06:11:16;;;;;;;11.15;10.65;;;;;;;22.85;52.49;100953.09;5083022;28;20107;-62
2022/10/19 06:13:44;;;;;;;10.48;9.98;;;;;;;22.82;51.22;100958.94;5080428;28;20043;-62
2022/10/19 06:16:11;;;;;;;10.60;10.10;;;;;;;23.73;48.50;100957.94;5081195;28;20554;-62
2022/10/19 06:18:37;;;;;;;10.27;9.85;;;;;;;23.68;47.06;100964.91;5079307;28;20032;-62
2022/10/19 06:21:05;;;;;;;10.60;10.10;;;;;;;24.46;46.35;100953.91;5078953;28;20085;-62
2022/10/19 06:23:33;;;;;;;10.70;10.20;;;;;;;23.93;47.18;100960.88;5083837;28;20036;-62
2022/10/19 06:26:00;;;;;;;10.68;10.18;;;;;;;23.43;47.00;100959.13;5081814;28;20054;-62
2022/10/19 06:28:26;;;;;;;10.50;10.00;;;;;;;21.44;53.00;100966.22;5079212;28;20118;-62
2022/10/19 06:30:51;;;;;;;10.80;10.30;;;;;;;19.10;72.09;100961.63;5077999;28;20037;-62
2022/10/19 06:33:17;;;;;;;11.30;10.80;;;;;;;18.14;81.56;100951.88;5082221;28;20119;-61
2022/10/19 06:35:42;;;;;;;10.73;10.25;;;;;;;17.74;87.46;100964.66;5080546;28;20031;-62
2022/10/19 06:38:08;;;;;;;10.43;9.93;;;;;;;17.50;88.79;100963.44;5076562;28;20029;-62
2022/10/19 06:40:34;;;;;;;11.15;10.65;;;;;;;17.32;90.21;100956.84;5083739;28;20029;-61
2022/10/19 06:43:00;;;;;;;10.60;10.10;;;;;;;16.75;93.43;100952.97;5080930;28;20548;-62
2022/10/19 06:45:25;;;;;;;11.20;10.70;;;;;;;17.01;94.52;100954.81;5079874;28;20028;-62
2022/10/19 06:47:50;;;;;;;10.80;10.30;;;;;;;16.87;94.44;100953.16;5083596;28;20425;-62
2022/10/19 06:50:16;;;;;;;11.38;10.88;;;;;;;16.94;94.03;100959.34;5086471;28;20043;-61
2022/10/19 06:52:42;;;;;;;11.55;11.05;;;;;;;17.87;92.44;100953.88;5085923;28;20067;-63
2022/10/19 06:55:08;;;;;;;11.25;10.75;;;;;;;16.70;94.59;100944.72;5087392;28;20479;-63
2022/10/19 06:57:34;;;;;;;11.15;10.65;;;;;;;16.82;95.59;100952.97;5078297;28;20494;-61
2022/10/19 06:59:59;;;;;;;10.68;10.18;;;;;;;15.98;100.00;100958.69;5086152;28;20095;-61
2022/10/19 07:02:24;;;;;;;10.70;10.20;;;;;;;15.95;100.00;100959.94;5082649;28;20086;-61
2022/10/19 07:04:50;;;;;;;10.40;9.90;;;;;;;15.55;100.00;100955.34;5086050;28;20066;-62
2022/10/19 07:07:15;;;;;;;11.10;10.60;;;;;;;16.03;100.00;100951.72;5079584;28;20030;-62
2022/10/19 07:09:41;;;;;;;11.35;10.85;;;;;;;20.23;80.95;100953.16;5077935;28;20028;-62
2022/10/19 07:12:09;;;;;;;10.70;10.20;;;;;;;21.56;67.90;100962.69;5079443;28;20086;-62
2022/10/19 07:14:38;;;;;;;10.50;10.00;;;;;;;22.51;61.83;100954.09;5084530;28;20016;-61
2022/10/19 07:17:08;;;;;;;10.00;9.60;;;;;;;20.19;68.79;100958.16;5086281;28;20545;-62
2022/10/19 07:19:34;;;;;;;10.20;9.80;;;;;;;18.62;84.97;100959.47;5083082;28;20036;-62
2022/10/19 07:21:59;;;;;;;10.60;10.10;;;;;;;17.84;92.32;100967.69;5077513;28;20514;-62
2022/10/19 07:24:25;;;;;;;10.60;10.10;;;;;;;17.55;93.70;100971.66;5082407;28;20070;-62
2022/10/19 07:26:51;;;;;;;10.25;9.75;;;;;;;17.20;96.15;100979.16;5085664;28;20035;-62
2022/10/19 07:29:16;;;;;;;10.77;10.27;;;;;;;17.06;97.43;100973.81;5082061;28;20024;-61
2022/10/19 07:31:42;;;;;;;10.70;10.20;;;;;;;16.85;100.00;100974.00;5077932;28;20036;-61
2022/10/19 07:34:11;;;;;;;10.73;10.23;;;;;;;16.87;100.00;100973.78;5078877;28;20048;-61
2022/10/19 07:36:36;;;;;;;10.57;10.07;;;;;;;16.45;100.00;100973.06;5079968;28;20363;-61
2022/10/19 07:39:05;;;;;;;10.50;10.00;;;;;;;16.74;100.00;100975.41;5087210;28;20028;-61
2022/10/19 07:41:30;;;;;;;11.35;10.85;;;;;;;16.93;100.00;100967.59;5088225;28;20027;-61
2022/10/19 07:43:56;;;;;;;10.32;9.82;;;;;;;19.17;92.61;100981.19;5082449;28;20387;-62
2022/10/19 07:46:25;;;;;;;10.15;9.70;;;;;;;19.41;87.84;100971.50;5086092;28;20403;-62
2022/10/19 07:48:52;;;;;;;10.98;10.48;;;;;;;20.12;84.36;100974.44;5081807;28;20028;-62
2022/10/19 07:51:18;;;;;;;10.45;9.95;;;;;;;22.91;68.34;100972.09;5085991;28;20425;-62
2022/10/19 07:53:44;;;;;;;10.25;9.80;;;;;;;22.54;62.88;100969.81;5078365;28;20024;-62
2022/10/19 07:56:14;;;;;;;10.60;10.10;;;;;;;23.94;59.03;100967.91;5079179;28;20036;-62
2022/10/19 07:58:40;;;;;;;10.52;10.02;;;;;;;25.22;55.97;100970.03;5085052;28;20082;-61
2022/10/19 08:01:09;;;;;;;10.20;9.80;;;;;;;23.65;57.11;100976.25;5085639;28;20027;-63
2022/10/19 08:03:35;;;;;;;10.02;9.63;;;;;;;19.39;94.91;100965.47;5080970;28;20493;-62
2022/10/19 08:06:03;;;;;;;9.80;9.40;;;;;;;20.55;91.07;100962.69;5090176;28;20433;-62
2022/10/19 08:08:29;;;;;;;10.48;9.98;;;;;;;20.04;97.33;100961.25;5084782;28;20021;-61
2022/10/19 08:10:55;;;;;;;10.50;10.00;;;;;;;19.20;100.00;100959.25;5080419;28;20023;-61
2022/10/19 08:13:20;;;;;;;10.50;10.00;;;;;;;18.45;100.00;100945.75;5083647;28;20028;-61
2022/10/19 08:15:46;;;;;;;10.40;9.90;;;;;;;18.18;100.00;100945.88;5082633;28;20363;-61
2022/10/19 08:18:11;;;;;;;10.80;10.30;;;;;;;17.91;100.00;100960.44;5079241;28;20024;-62
2022/10/19 08:20:40;;;;;;;10.70;10.20;;;;;;;17.62;100.00;100956.38;5078893;28;20030;-62
2022/10/19 08:23:06;;;;;;;10.93;10.43;;;;;;;17.34;100.00;100954.81;5081351;28;20031;-62
2022/10/19 08:25:31;;;;;;;11.40;10.90;;;;;;;17.05;100.00;100960.59;5088091;28;20024;-62
2022/10/19 08:27:57;;;;;;;11.23;10.73;;;;;;;17.18;100.00;100949.84;5079726;28;20024;-62
2022/10/19 08:30:22;;;;;;;10.85;10.35;;;;;;;17.63;100.00;100958.06;5080701;28;20034;-61
2022/10/19 08:32:47;;;;;;;10.90;10.40;;;;;;;17.57;100.00;100962.41;5081200;28;20024;-61
2022/10/19 08:35:13;;;;;;;10.77;10.27;;;;;;;17.36;100.00;100957.28;5079980;28;20021;-62
2022/10/19 08:37:38;;;;;;;10.70;10.20;;;;;;;17.14;100.00;100956.69;5074815;28;20021;-61
2022/10/19 08:40:05;;;;;;;10.70;10.20;;;;;;;17.06;100.00;100952.34;5086272;28;20379;-61
2022/10/19 08:42:46;;;;;;;10.95;10.45;;;;;;;16.74;100.00;100953.97;5079873;28;20039;-62
2022/10/19 08:45:30;;;;;;;11.52;10.93;;;;;;;17.22;100.00;100959.16;5079406;28;20016;-61
2022/10/19 08:48:05;;;;;;;11.20;10.70;;;;;;;16.94;100.00;100950.50;5078143;28;20033;-62
2022/10/19 08:50:37;;;;;;;10.77;10.27;;;;;;;16.77;100.00;100952.75;5084795;28;20043;-61
2022/10/19 08:53:06;;;;;;;10.75;10.25;;;;;;;17.03;100.00;100957.28;5079921;28;20062;-61
2022/10/19 08:56:03;;;;;;;10.93;10.43;;;;;;;16.97;100.00;100956.28;5076133;28;20029;-61
2022/10/19 08:59:13;;;;;;;11.57;10.98;;;;;;;16.96;100.00;100959.16;5077844;28;20025;-62
2022/10/19 09:01:47;;;;;;;10.65;10.15;;;;;;;16.87;100.00;100957.69;5065457;28;20170;-62
2022/10/19 09:04:32;;;;;;;10.77;10.27;;;;;;;16.65;100.00;100955.19;5065651;28;20439;-62
2022/10/19 09:07:16;;;;;;;10.13;9.63;;;;;;;16.59;100.00;100945.28;5077322;28;20098;-62
2022/10/19 09:09:45;;;;;;;10.13;9.63;;;;;;;16.74;100.00;100959.34;5082058;28;20020;-62
2022/10/19 09:12:16;;;;;;;10.32;9.82;;;;;;;16.63;100.00;100967.97;5082490;28;20039;-62
2022/10/19 09:15:01;;;;;;;10.57;10.07;;;;;;;16.89;100.00;100958.31;5082012;28;20028;-60
2022/10/19 09:17:29;;;;;;;10.20;9.70;;;;;;;16.80;100.00;100961.19;5076070;28;20422;-61
2022/10/19 09:19:55;;;;;;;10.98;10.48;;;;;;;16.96;100.00;100964.50;5085196;28;20034;-61
2022/10/19 09:22:33;;;;;;;10.50;10.00;;;;;;;17.04;100.00;100966.97;5078870;28;20020;-62
2022/10/19 09:25:11;;;;;;;10.43;9.93;;;;;;;17.18;100.00;100965.94;5084473;28;20027;-62
2022/10/19 09:27:39;;;;;;;10.57;10.07;;;;;;;17.17;100.00;100977.69;5087567;28;20035;-62
2022/10/19 09:30:26;;;;;;;11.00;10.50;;;;;;;17.31;100.00;100965.94;5083075;28;20106;-62
2022/10/19 09:33:00;;;;;;;10.85;10.35;;;;;;;17.36;100.00;100965.31;5082643;28;20027;-62
2022/10/19 09:35:30;;;;;;;10.93;10.43;;;;;;;17.31;100.00;100960.56;5081754;28;20024;-62
2022/10/19 09:37:57;;;;;;;10.10;9.60;;;;;;;17.33;100.00;100960.34;5085935;28;20016;-61
2022/10/19 09:40:26;;;;;;;10.57;10.07;;;;;;;17.61;100.00;100962.78;5087810;28;20089;-61
2022/10/19 09:42:58;;;;;;;10.23;9.73;;;;;;;17.62;100.00;100964.44;5086185;28;20535;-62
2022/10/19 09:45:43;;;;;;;10.60;10.10;;;;;;;17.65;100.00;100966.72;5087411;28;20024;-62
2022/10/19 09:48:42;;;;;;;10.75;10.25;;;;;;;17.44;100.00;100954.38;5084449;28;20020;-62
2022/10/19 09:51:13;;;;;;;10.35;9.85;;;;;;;17.90;100.00;100954.25;5075970;28;20043;-64
2022/10/19 09:53:44;;;;;;;10.57;10.07;;;;;;;18.01;100.00;100951.97;5079254;28;20059;-64
2022/10/19 09:56:18;;;;;;;10.25;9.75;;;;;;;18.41;100.00;100944.53;5082806;28;20028;-62
2022/10/19 09:58:49;;;;;;;10.10;9.60;;;;;;;17.94;100.00;100946.63;5082458;28;20028;-62
2022/10/19 10:01:34;;;;;;;10.43;9.93;;;;;;;18.10;100.00;100940.75;5081918;28;20552;-62
2022/10/19 10:04:13;;;;;;;10.50;10.00;;;;;;;18.08;100.00;100950.91;5081033;28;20035;-61
2022/10/19 10:06:40;;;;;;;10.80;10.30;;;;;;;17.94;100.00;100941.25;5083044;28;20426;-62
2022/10/19 10:09:06;;;;;;;10.23;9.75;;;;;;;17.90;100.00;100937.34;5084557;28;20057;-62
2022/10/19 10:11:38;;;;;;;9.82;9.43;;;;;;;18.01;100.00;100930.50;5080624;28;20025;-62
2022/10/19 10:14:18;;;;;;;10.45;9.95;;;;;;;17.98;100.00;100930.91;5087714;28;20097;-61
2022/10/19 10:16:44;;;;;;;10.20;9.70;;;;;;;18.39;100.00;100925.13;5086054;28;20042;-62
2022/10/19 10:19:15;;;;;;;10.38;9.88;;;;;;;17.98;100.00;100925.53;5078616;28;20149;-63
2022/10/19 10:21:56;;;;;;;10.43;9.93;;;;;;;18.14;100.00;100917.84;5079031;28;20102;-66
2022/10/19 10:24:30;;;;;;;10.65;10.15;;;;;;;18.17;100.00;100921.94;5083956;28;20016;-67
2022/10/19 10:26:59;;;;;;;9.38;8.98;;;;;;;17.79;100.00;100925.41;5084117;28;20380;-66
2022/10/19 10:29:38;;;;;;;9.73;9.32;;;;;;;17.40;100.00;100915.59;5089658;28;20054;-65
2022/10/19 10:32:09;;;;;;;10.20;9.70;;;;;;;17.22;100.00;100920.78;5088960;28;20387;-66
2022/10/19 10:34:38;;;;;;;10.80;10.30;;;;;;;17.02;100.00;100916.25;5082832;28;20020;-66
2022/10/19 10:37:07;;;;;;;10.20;9.70;;;;;;;17.07;100.00;100924.50;5088867;28;20107;-66
2022/10/19 10:39:40;;;;;;;10.02;9.55;;;;;;;16.93;100.00;100940.81;5083251;28;20031;-67
2022/10/19 10:42:12;;;;;;;10.43;9.93;;;;;;;16.58;100.00;100928.38;5082759;28;20025;-67
2022/10/19 10:44:43;;;;;;;10.75;10.25;;;;;;;16.49;100.00;100942.19;5089653;28;20042;-65
2022/10/19 10:47:13;;;;;;;10.60;10.10;;;;;;;17.04;100.00;100935.66;5088037;28;20111;-65
2022/10/19 10:49:41;;;;;;;10.93;10.43;;;;;;;16.91;100.00;100932.16;5084794;28;20126;-66
2022/10/19 10:52:11;;;;;;;11.27;10.77;;;;;;;16.78;100.00;100930.28;5087096;28;20423;-65
2022/10/19 10:54:37;;;;;;;11.20;10.70;;;;;;;17.00;100.00;100914.84;5084563;28;20055;-66
2022/10/19 10:57:17;;;;;;;10.25;9.75;;;;;;;16.78;100.00;100901.66;5087960;28;20040;-67
2022/10/19 11:00:12;;;;;;;10.55;10.05;;;;;;;16.99;100.00;100911.31;5087779;28;20036;-67
2022/10/19 11:02:51;;;;;;;10.43;9.93;;;;;;;17.16;100.00;100909.03;5089322;28;20499;-65
2022/10/19 11:05:35;;;;;;;9.82;9.43;;;;;;;17.04;100.00;100911.53;5083096;28;20051;-66
2022/10/19 11:08:32;;;;;;;10.13;9.63;;;;;;;17.08;100.00;100914.63;5086451;28;20108;-66
2022/10/19 11:11:00;;;;;;;10.88;10.38;;;;;;;17.05;100.00;100918.53;5081841;28;20426;-66
2022/10/19 11:13:53;;;;;;;10.43;9.93;;;;;;;17.22;100.00;100916.25;5089496;28;20541;-67
2022/10/19 11:16:25;;;;;;;9.90;9.50;;;;;;;17.15;100.00;100910.06;5078731;28;20024;-67
2022/10/19 11:18:56;;;;;;;10.25;9.75;;;;;;;18.07;100.00;100910.84;5079961;28;20024;-67
2022/10/19 11:21:49;;;;;;;9.98;9.55;;;;;;;17.50;100.00;100915.16;5104317;28;20035;-69
2022/10/19 11:24:33;;;;;;;10.20;9.70;;;;;;;17.56;100.00;100917.00;5084755;28;20483;-65